Terminal Aerodrome Forecast
Issued by NWS

Home | Current Version | Previous Version | Text Only | Print | Product List | Glossary On
Versions: 1 2 3 4 5 6 7 8 9 10 11 12 13 14 15 16
000
FTUS43 KDMX 301734
TAFOTM
TAF
KOTM 301734Z 3018/3118 15010KT P6SM SCT090
     FM302300 30008KT P6SM SCT080 BKN100
     FM310200 34015G22KT P6SM SCT025 BKN040
     FM310600 35018G32KT P6SM SCT030
     FM311400 35015G23KT P6SM SKC=

USA.gov is the U.S. government's official web portal to all federal, state and local government web resources and services.